createdAt,value
2023-05-24T00:00:09.550Z,3.90
2023-05-24T00:02:37.958Z,4.03
2023-05-24T00:05:05.405Z,4.20
2023-05-24T00:07:31.862Z,3.93
2023-05-24T00:09:58.299Z,3.80
2023-05-24T00:12:25.056Z,3.80
2023-05-24T00:14:51.790Z,4.33
2023-05-24T00:17:18.230Z,3.93
2023-05-24T00:19:44.625Z,4.00
2023-05-24T00:22:11.919Z,3.93
2023-05-24T00:24:38.345Z,4.10
2023-05-24T00:27:04.954Z,4.13
2023-05-24T00:29:32.380Z,4.00
2023-05-24T00:31:58.905Z,4.20
2023-05-24T00:34:25.329Z,3.40
2023-05-24T00:36:51.812Z,3.07
2023-05-24T00:39:18.213Z,3.80
2023-05-24T00:41:44.618Z,3.47
2023-05-24T00:44:11.304Z,4.20
2023-05-24T00:46:38.173Z,3.80
2023-05-24T00:49:04.805Z,4.10
2023-05-24T00:51:32.538Z,3.47
2023-05-24T00:53:59.525Z,3.73
2023-05-24T00:56:27.822Z,4.33
2023-05-24T00:58:57.108Z,3.80
2023-05-24T01:01:26.549Z,3.70
2023-05-24T01:03:54.435Z,3.37
2023-05-24T01:06:21.699Z,4.00
2023-05-24T01:08:54.224Z,4.63
2023-05-24T01:11:50.798Z,4.43
2023-05-24T01:14:29.223Z,3.97
2023-05-24T01:17:04.142Z,3.73
2023-05-24T01:19:51.341Z,4.17
2023-05-24T01:22:50.847Z,3.57
2023-05-24T01:25:28.324Z,3.93
2023-05-24T01:27:55.278Z,3.80
2023-05-24T01:30:22.211Z,4.07
2023-05-24T01:32:49.098Z,3.80
2023-05-24T01:35:15.653Z,4.43
2023-05-24T01:37:42.058Z,4.10
2023-05-24T01:40:09.201Z,3.73
2023-05-24T01:42:46.408Z,4.03
2023-05-24T01:45:31.229Z,4.20
2023-05-24T01:48:18.714Z,4.50
2023-05-24T01:51:04.995Z,4.47
2023-05-24T01:53:41.566Z,4.20
2023-05-24T01:56:09.981Z,5.17
2023-05-24T01:58:37.518Z,4.13
2023-05-24T02:01:04.040Z,3.87
2023-05-24T02:03:31.333Z,4.30
2023-05-24T02:05:57.825Z,4.47
2023-05-24T02:08:24.234Z,4.00
2023-05-24T02:10:50.650Z,3.93
2023-05-24T02:13:18.219Z,4.30
2023-05-24T02:15:44.849Z,4.60
2023-05-24T02:18:11.358Z,4.00
2023-05-24T02:20:37.939Z,3.97
2023-05-24T02:23:04.453Z,3.97
2023-05-24T02:25:32.114Z,3.67
2023-05-24T02:27:59.580Z,4.20
2023-05-24T02:30:27.125Z,3.37
2023-05-24T02:32:53.618Z,4.30
2023-05-24T02:35:20.621Z,4.20
2023-05-24T02:37:47.073Z,4.20
2023-05-24T02:40:13.529Z,4.03
2023-05-24T02:42:39.988Z,3.60
2023-05-24T02:45:07.062Z,4.73
2023-05-24T02:47:33.559Z,3.80
2023-05-24T02:49:59.985Z,4.40
2023-05-24T02:52:26.720Z,4.33
2023-05-24T02:54:53.139Z,4.30
2023-05-24T02:57:19.553Z,4.10
2023-05-24T02:59:45.956Z,4.73
2023-05-24T03:02:13.743Z,4.30
2023-05-24T03:04:40.367Z,4.90
2023-05-24T03:07:06.792Z,4.47
2023-05-24T03:09:33.474Z,4.30
2023-05-24T03:11:59.902Z,4.60
2023-05-24T03:14:26.307Z,4.40
2023-05-24T03:16:52.751Z,5.53
2023-05-24T03:19:19.197Z,4.67
2023-05-24T03:21:45.612Z,5.33
2023-05-24T03:24:13.183Z,4.13
2023-05-24T03:26:42.608Z,5.10
2023-05-24T03:29:09.065Z,4.60
2023-05-24T03:31:35.558Z,4.57
2023-05-24T03:34:02.024Z,5.00
2023-05-24T03:36:29.219Z,4.57
2023-05-24T03:38:58.172Z,4.70
2023-05-24T03:41:24.820Z,4.73
2023-05-24T03:43:52.622Z,4.53
2023-05-24T03:46:19.135Z,4.80
2023-05-24T03:48:45.620Z,4.23
2023-05-24T03:51:12.036Z,4.60
2023-05-24T03:53:38.459Z,4.33
2023-05-24T03:56:04.936Z,4.60
2023-05-24T03:58:31.376Z,4.40
2023-05-24T04:00:57.787Z,4.90
2023-05-24T04:03:26.020Z,4.83
2023-05-24T04:05:53.782Z,4.23
2023-05-24T04:08:20.210Z,4.93
2023-05-24T04:10:46.631Z,4.00
2023-05-24T04:13:13.042Z,4.33
2023-05-24T04:15:39.462Z,4.33
2023-05-24T04:18:06.023Z,4.70
2023-05-24T04:20:32.700Z,4.70
2023-05-24T04:22:59.223Z,4.97
2023-05-24T04:25:26.824Z,5.00
2023-05-24T04:27:53.572Z,4.70
2023-05-24T04:30:21.254Z,4.73
2023-05-24T04:32:48.504Z,4.90
2023-05-24T04:35:15.491Z,4.90
2023-05-24T04:37:42.209Z,4.43
2023-05-24T04:40:09.311Z,5.43
2023-05-24T04:42:35.793Z,4.70
2023-05-24T04:45:02.901Z,5.57
2023-05-24T04:47:29.809Z,5.00
2023-05-24T04:49:56.296Z,5.23
2023-05-24T04:52:22.756Z,5.10
2023-05-24T04:54:49.939Z,5.47
2023-05-24T04:57:16.511Z,5.07
2023-05-24T04:59:43.620Z,5.90
2023-05-24T05:02:10.211Z,5.40
2023-05-24T05:04:36.675Z,5.60
2023-05-24T05:07:03.813Z,5.97
2023-05-24T05:09:30.440Z,6.17
2023-05-24T05:11:56.889Z,6.20
2023-05-24T05:14:23.303Z,6.47
2023-05-24T05:16:49.894Z,5.90
2023-05-24T05:19:16.521Z,5.83
2023-05-24T05:21:42.960Z,5.87
2023-05-24T05:24:09.574Z,5.63
2023-05-24T05:26:36.025Z,6.27
2023-05-24T05:29:02.479Z,6.10
2023-05-24T05:31:29.676Z,6.30
2023-05-24T05:33:56.209Z,5.73
2023-05-24T05:36:22.725Z,5.97
2023-05-24T05:38:49.135Z,6.13
2023-05-24T05:41:15.683Z,6.60
2023-05-24T05:43:42.103Z,6.27
2023-05-24T05:46:08.592Z,6.00
2023-05-24T05:48:35.045Z,6.20
2023-05-24T05:51:01.462Z,6.47
2023-05-24T05:53:27.882Z,6.43
2023-05-24T05:55:54.390Z,6.40
2023-05-24T05:58:21.013Z,5.97
2023-05-24T06:00:47.421Z,6.30
2023-05-24T06:03:14.028Z,6.73
2023-05-24T06:05:40.623Z,6.30
2023-05-24T06:08:07.039Z,6.43
2023-05-24T06:10:33.540Z,6.53
2023-05-24T06:13:02.965Z,6.50
2023-05-24T06:15:29.494Z,6.13
2023-05-24T06:17:55.944Z,6.80
2023-05-24T06:20:22.989Z,6.20
2023-05-24T06:22:50.633Z,6.60
2023-05-24T06:25:19.532Z,7.00
2023-05-24T06:27:46.091Z,6.57
2023-05-24T06:30:13.446Z,7.53
2023-05-24T06:32:40.123Z,6.77
2023-05-24T06:35:07.858Z,7.80
2023-05-24T06:37:34.450Z,7.20
2023-05-24T06:40:00.979Z,7.00
2023-05-24T06:42:27.461Z,7.37
2023-05-24T06:44:54.232Z,7.77
2023-05-24T06:47:22.252Z,7.10
2023-05-24T06:49:49.946Z,7.30
2023-05-24T06:52:16.658Z,8.27
2023-05-24T06:54:43.128Z,7.27
2023-05-24T06:57:09.542Z,7.13
2023-05-24T06:59:36.311Z,7.60
2023-05-24T07:02:04.156Z,7.13
2023-05-24T07:04:31.207Z,8.43
2023-05-24T07:06:58.321Z,6.73
2023-05-24T07:09:24.942Z,7.80
2023-05-24T07:11:51.498Z,7.87
2023-05-24T07:14:17.905Z,7.60
2023-05-24T07:16:44.349Z,7.70
2023-05-24T07:19:10.826Z,7.43
2023-05-24T07:21:37.573Z,7.47
2023-05-24T07:24:04.338Z,6.97
2023-05-24T07:26:30.821Z,6.77
2023-05-24T07:28:57.313Z,7.73
2023-05-24T07:31:23.760Z,7.63
2023-05-24T07:33:50.196Z,7.87
2023-05-24T07:36:16.613Z,7.83
2023-05-24T07:38:43.515Z,7.23
2023-05-24T07:41:09.954Z,7.10
2023-05-24T07:43:37.585Z,7.97
2023-05-24T07:46:04.366Z,8.37
2023-05-24T07:48:31.141Z,7.97
2023-05-24T07:50:57.585Z,7.50
2023-05-24T07:53:24.077Z,8.10
2023-05-24T07:55:51.701Z,8.20
2023-05-24T07:58:18.150Z,8.20
2023-05-24T08:00:44.586Z,7.80
2023-05-24T08:03:14.445Z,8.13
2023-05-24T08:05:41.118Z,7.93
2023-05-24T08:08:07.860Z,7.30
2023-05-24T08:10:34.484Z,8.27
2023-05-24T08:13:01.101Z,7.90
2023-05-24T08:15:27.497Z,8.50
2023-05-24T08:17:53.981Z,8.10
2023-05-24T08:20:20.936Z,8.03
2023-05-24T08:22:48.576Z,7.33
2023-05-24T08:25:15.385Z,6.90
2023-05-24T08:27:41.856Z,7.27
2023-05-24T08:30:08.756Z,7.47
2023-05-24T08:32:35.356Z,7.53
2023-05-24T08:35:18.404Z,8.13
2023-05-24T08:37:46.056Z,8.27
2023-05-24T08:40:12.791Z,7.30
2023-05-24T08:42:39.814Z,7.33
2023-05-24T08:45:12.548Z,6.87
2023-05-24T08:47:39.887Z,6.70
2023-05-24T08:50:07.296Z,7.00
2023-05-24T08:52:34.184Z,7.10
2023-05-24T08:55:01.478Z,6.60
2023-05-24T08:57:28.098Z,6.60
2023-05-24T08:59:56.216Z,6.63
2023-05-24T09:02:23.786Z,7.07
2023-05-24T09:04:52.808Z,7.63
2023-05-24T09:07:24.051Z,7.27
2023-05-24T09:09:57.959Z,6.80
2023-05-24T09:12:36.297Z,6.43
2023-05-24T09:15:06.617Z,11.73
2023-05-24T09:17:34.759Z,6.47
2023-05-24T09:20:01.526Z,7.10
2023-05-24T09:22:30.565Z,7.40
2023-05-24T09:25:08.036Z,7.10
2023-05-24T09:27:35.171Z,6.13
2023-05-24T09:30:03.365Z,7.27
2023-05-24T09:32:31.508Z,7.63
2023-05-24T09:34:59.024Z,7.37
2023-05-24T09:37:32.729Z,7.53
2023-05-24T09:40:00.063Z,6.73
2023-05-24T09:42:28.787Z,6.00
2023-05-24T09:45:09.345Z,6.83
2023-05-24T09:47:37.626Z,6.17
2023-05-24T09:50:06.900Z,6.50
2023-05-24T09:52:37.077Z,5.97
2023-05-24T09:55:20.242Z,6.90
2023-05-24T09:57:53.135Z,5.27
2023-05-24T10:00:23.747Z,5.80
2023-05-24T10:03:13.669Z,5.77
2023-05-24T10:05:46.913Z,6.37
2023-05-24T10:08:14.468Z,5.73
2023-05-24T10:10:42.784Z,5.43
2023-05-24T10:13:10.346Z,6.00
2023-05-24T10:15:36.793Z,6.50
2023-05-24T10:18:10.375Z,5.77
2023-05-24T10:20:41.148Z,5.57
2023-05-24T10:23:10.159Z,5.70
2023-05-24T10:25:41.119Z,6.43
2023-05-24T10:28:12.657Z,5.20
2023-05-24T10:30:52.404Z,5.73
2023-05-24T10:33:21.109Z,5.57
2023-05-24T10:35:47.709Z,5.97
2023-05-24T10:38:14.281Z,5.60
2023-05-24T10:40:42.732Z,4.50
2023-05-24T10:43:10.134Z,4.83
2023-05-24T10:45:39.119Z,4.53
2023-05-24T10:48:15.543Z,4.77
2023-05-24T10:50:43.071Z,4.73
2023-05-24T10:53:13.273Z,5.00
2023-05-24T10:55:57.268Z,4.10
2023-05-24T10:58:42.495Z,4.37
2023-05-24T11:01:27.012Z,4.40
2023-05-24T11:04:05.040Z,4.57
2023-05-24T11:06:54.159Z,4.27
2023-05-24T11:09:21.059Z,4.40
2023-05-24T11:11:54.744Z,4.23
2023-05-24T11:14:27.712Z,4.63
2023-05-24T11:16:54.772Z,4.70
2023-05-24T11:19:30.743Z,4.20
2023-05-24T11:22:01.301Z,4.20
2023-05-24T11:24:28.968Z,4.00
2023-05-24T11:26:57.187Z,4.20
2023-05-24T11:29:24.219Z,3.83
2023-05-24T11:32:04.285Z,4.00
2023-05-24T11:34:32.104Z,3.75
2023-05-24T11:37:00.423Z,3.35
2023-05-24T11:39:35.474Z,3.70
2023-05-24T11:42:06.347Z,3.55
2023-05-24T11:44:33.496Z,3.92
2023-05-24T11:47:05.149Z,3.95
2023-05-24T11:49:31.593Z,3.58
2023-05-24T11:51:59.088Z,3.95
2023-05-24T11:54:27.333Z,3.20
2023-05-24T11:56:54.508Z,4.13
2023-05-24T11:59:26.041Z,3.67
2023-05-24T12:02:03.080Z,4.28
2023-05-24T12:04:30.962Z,4.25
2023-05-24T12:06:58.016Z,4.28
2023-05-24T12:09:25.217Z,4.40
2023-05-24T12:11:52.759Z,4.35
2023-05-24T12:14:23.582Z,4.07
2023-05-24T12:16:50.440Z,4.30
2023-05-24T12:19:31.846Z,4.72
2023-05-24T12:22:01.073Z,3.95
2023-05-24T12:24:28.107Z,3.97
2023-05-24T12:27:01.688Z,4.28
2023-05-24T12:29:33.117Z,3.90
2023-05-24T12:31:59.781Z,4.22
2023-05-24T12:34:26.477Z,3.58
2023-05-24T12:36:53.359Z,3.80
2023-05-24T12:39:36.763Z,4.00
2023-05-24T12:42:04.397Z,3.50
2023-05-24T12:44:32.917Z,3.67
2023-05-24T12:47:01.501Z,3.95
2023-05-24T12:49:28.184Z,3.95
2023-05-24T12:51:55.697Z,3.55
2023-05-24T12:54:26.764Z,3.83
2023-05-24T12:56:56.619Z,3.90
2023-05-24T12:59:23.646Z,4.07
2023-05-24T13:01:53.421Z,3.95
2023-05-24T13:04:21.853Z,4.53
2023-05-24T13:06:48.858Z,4.00
2023-05-24T13:09:18.089Z,3.97
2023-05-24T19:54:57.739Z,5.67
2023-05-24T19:57:24.163Z,5.73
2023-05-24T19:59:50.563Z,7.23
2023-05-24T20:02:16.998Z,5.73
2023-05-24T20:04:43.989Z,6.13
2023-05-24T20:07:10.821Z,6.43
2023-05-24T20:09:37.318Z,5.97
2023-05-24T20:12:04.484Z,6.63
2023-05-24T20:14:31.605Z,7.07
2023-05-24T20:16:58.726Z,6.97
2023-05-24T20:19:26.191Z,7.60
2023-05-24T20:21:52.962Z,7.80
2023-05-24T20:24:19.467Z,8.07
2023-05-24T20:26:45.952Z,7.13
2023-05-24T20:29:12.368Z,6.30
2023-05-24T20:31:39.137Z,6.87
2023-05-24T20:34:05.606Z,6.33
2023-05-24T20:36:32.830Z,7.03
2023-05-24T20:38:59.375Z,6.87
2023-05-24T20:44:26.684Z,7.57
2023-05-24T20:47:34.836Z,8.17
2023-05-24T20:49:59.173Z,7.90
2023-05-24T20:52:25.579Z,7.47
2023-05-24T20:54:52.018Z,7.33
2023-05-24T20:57:18.443Z,7.57
2023-05-24T20:59:44.919Z,7.03
2023-05-24T21:02:11.370Z,6.60
2023-05-24T21:04:37.862Z,6.40
2023-05-24T21:07:04.466Z,6.87
2023-05-24T21:09:30.891Z,7.93
2023-05-24T21:11:57.327Z,6.30
2023-05-24T21:14:23.715Z,7.00
2023-05-24T21:16:50.137Z,6.73
2023-05-24T21:19:16.609Z,7.40
2023-05-24T21:21:43.053Z,7.97
2023-05-24T21:24:09.446Z,7.70
2023-05-24T21:26:35.875Z,7.30
2023-05-24T21:29:02.299Z,6.20
2023-05-24T21:31:30.035Z,6.77
2023-05-24T21:33:56.760Z,6.13
2023-05-24T21:36:23.230Z,6.00
2023-05-24T21:38:49.666Z,5.90
2023-05-24T21:41:16.087Z,6.10
2023-05-24T21:43:42.853Z,5.87
2023-05-24T21:46:09.352Z,6.23
2023-05-24T21:48:35.764Z,5.90
2023-05-24T21:51:02.236Z,6.60
2023-05-24T21:53:28.633Z,6.33
2023-05-24T21:55:55.060Z,6.47
2023-05-24T21:58:21.521Z,5.97
2023-05-24T22:00:47.950Z,5.87
2023-05-24T22:03:14.658Z,6.17
2023-05-24T22:05:41.163Z,6.10
2023-05-24T22:08:07.615Z,6.47
2023-05-24T22:10:34.193Z,6.63
2023-05-24T22:13:01.475Z,6.50
2023-05-24T22:15:28.311Z,6.73
2023-05-24T22:17:58.517Z,6.87
2023-05-24T22:20:26.208Z,6.30
2023-05-24T22:22:53.642Z,7.07
2023-05-24T22:25:20.924Z,6.30
2023-05-24T22:27:51.385Z,7.13
2023-05-24T22:30:17.883Z,6.87
2023-05-24T22:32:44.367Z,6.50
2023-05-24T22:35:10.913Z,7.07
2023-05-24T22:37:37.425Z,6.57
2023-05-24T22:40:04.763Z,7.03
2023-05-24T22:42:31.722Z,7.50
2023-05-24T22:44:58.141Z,7.13
2023-05-24T22:47:24.695Z,7.20
2023-05-24T22:49:54.101Z,7.13
2023-05-24T22:52:20.799Z,7.17
2023-05-24T22:54:47.256Z,6.63
2023-05-24T22:57:13.657Z,7.33
2023-05-24T22:59:40.087Z,6.70
2023-05-24T23:02:06.651Z,7.00
2023-05-24T23:04:33.554Z,7.63
2023-05-24T23:07:01.556Z,11.60
2023-05-24T23:09:34.713Z,7.47
2023-05-24T23:12:07.206Z,7.63
2023-05-24T23:14:38.250Z,7.40
2023-05-24T23:17:06.682Z,7.37
2023-05-24T23:19:33.261Z,6.77
2023-05-24T23:21:59.747Z,7.23
2023-05-24T23:24:26.833Z,6.80
2023-05-24T23:26:55.743Z,6.57
2023-05-24T23:29:22.443Z,7.13
2023-05-24T23:31:48.924Z,7.10
2023-05-24T23:34:15.499Z,6.83
2023-05-24T23:36:41.964Z,7.30
2023-05-24T23:39:10.975Z,6.77
2023-05-24T23:41:37.437Z,7.13
2023-05-24T23:44:03.875Z,6.83
2023-05-24T23:46:30.328Z,7.20
2023-05-24T23:48:56.821Z,7.13
2023-05-24T23:51:23.299Z,7.57
2023-05-24T23:53:49.733Z,7.20
2023-05-24T23:56:16.367Z,7.07
2023-05-24T23:58:43.834Z,7.40
